createdAt,value
2019-05-29T00:00:05.820Z,9.10
2019-05-29T00:01:09.008Z,9.40
2019-05-29T00:02:05.957Z,8.90
2019-05-29T00:03:06.297Z,8.90
2019-05-29T00:04:06.177Z,11.00
2019-05-29T00:05:05.985Z,9.00
2019-05-29T00:06:06.214Z,8.90
2019-05-29T00:07:06.100Z,8.80
2019-05-29T00:08:06.366Z,9.80
2019-05-29T00:09:06.020Z,8.40
2019-05-29T00:10:06.173Z,11.60
2019-05-29T00:11:06.073Z,8.30
2019-05-29T00:12:08.447Z,8.80
2019-05-29T00:13:06.281Z,8.80
2019-05-29T00:14:21.728Z,9.00
2019-05-29T00:15:06.317Z,9.10
2019-05-29T00:16:06.307Z,9.50
2019-05-29T00:17:06.432Z,9.10
2019-05-29T00:18:06.496Z,8.90
2019-05-29T00:19:06.975Z,9.00
2019-05-29T00:20:06.679Z,8.60
2019-05-29T00:21:06.775Z,9.50
2019-05-29T00:22:06.865Z,11.00
2019-05-29T00:23:06.962Z,9.00
2019-05-29T00:24:08.232Z,10.30
2019-05-29T00:25:08.426Z,9.80
2019-05-29T00:26:08.260Z,9.40
2019-05-29T00:27:07.445Z,9.40
2019-05-29T00:28:08.428Z,9.20
2019-05-29T00:29:07.571Z,10.10
2019-05-29T00:30:08.562Z,9.90
2019-05-29T00:31:07.810Z,9.40
2019-05-29T00:32:08.823Z,9.90
2019-05-29T00:33:08.008Z,9.60
2019-05-29T00:34:08.930Z,11.20
2019-05-29T00:35:08.330Z,9.60
2019-05-29T00:36:08.262Z,9.70
2019-05-29T00:37:08.571Z,10.40
2019-05-29T00:38:08.513Z,12.40
2019-05-29T00:39:08.667Z,10.40
2019-05-29T00:40:09.029Z,10.90
2019-05-29T00:41:08.837Z,9.90
2019-05-29T00:42:08.965Z,9.90
2019-05-29T00:43:09.144Z,10.60
2019-05-29T00:44:09.142Z,10.40
2019-05-29T00:45:09.500Z,9.60
2019-05-29T00:46:09.358Z,9.60
2019-05-29T00:47:09.441Z,8.70
2019-05-29T00:48:09.658Z,9.60
2019-05-29T00:49:09.724Z,9.10
2019-05-29T00:50:09.915Z,8.90
2019-05-29T00:51:09.575Z,8.40
2019-05-29T00:52:10.019Z,9.60
2019-05-29T00:53:10.146Z,8.60
2019-05-29T00:54:10.310Z,8.30
2019-05-29T00:55:10.482Z,7.80
2019-05-29T00:56:10.488Z,8.30
2019-05-29T00:57:10.886Z,8.20
2019-05-29T00:58:10.737Z,7.90
2019-05-29T00:59:11.078Z,7.90
2019-05-29T01:00:11.201Z,7.40
2019-05-29T01:01:11.411Z,7.30
2019-05-29T01:02:11.773Z,7.60
2019-05-29T01:03:11.611Z,7.50
2019-05-29T01:04:11.520Z,7.50
2019-05-29T01:05:11.902Z,8.00
2019-05-29T01:06:11.960Z,7.80
2019-05-29T01:07:12.183Z,9.00
2019-05-29T01:08:12.470Z,7.50
2019-05-29T01:09:12.307Z,7.30
2019-05-29T01:10:13.019Z,7.00
2019-05-29T01:11:12.441Z,7.10
2019-05-29T01:12:12.768Z,7.00
2019-05-29T01:13:11.645Z,6.90
2019-05-29T01:14:11.744Z,6.20
2019-05-29T01:15:11.834Z,6.70
2019-05-29T01:16:11.926Z,6.20
2019-05-29T01:17:12.253Z,6.70
2019-05-29T01:18:12.128Z,5.30
2019-05-29T01:19:12.221Z,8.40
2019-05-29T01:20:12.312Z,5.90
2019-05-29T01:21:12.407Z,6.40
2019-05-29T01:22:12.489Z,5.80
2019-05-29T01:23:12.579Z,6.20
2019-05-29T01:24:12.676Z,4.90
2019-05-29T01:25:12.771Z,4.40
2019-05-29T01:26:12.864Z,5.50
2019-05-29T01:27:12.978Z,6.80
2019-05-29T01:28:13.062Z,7.00
2019-05-29T01:29:13.157Z,5.40
2019-05-29T01:30:13.276Z,5.00
2019-05-29T01:31:13.634Z,6.00
2019-05-29T01:32:13.527Z,4.90
2019-05-29T01:33:16.851Z,7.20
2019-05-29T01:34:13.629Z,5.30
2019-05-29T01:35:13.812Z,6.30
2019-05-29T01:36:13.879Z,4.60
2019-05-29T01:37:14.015Z,4.90
2019-05-29T01:38:15.144Z,6.30
2019-05-29T01:39:15.097Z,6.60
2019-05-29T01:40:21.032Z,4.90
2019-05-29T01:41:15.087Z,7.90
2019-05-29T01:42:15.189Z,6.90
2019-05-29T01:43:15.350Z,4.80
2019-05-29T01:44:15.314Z,6.20
2019-05-29T01:45:15.445Z,7.60
2019-05-29T01:46:15.216Z,6.10
2019-05-29T01:47:15.362Z,6.30
2019-05-29T01:48:15.383Z,5.00
2019-05-29T01:49:15.997Z,6.10
2019-05-29T01:50:15.570Z,7.10
2019-05-29T01:51:15.458Z,4.80
2019-05-29T01:52:15.568Z,7.10
2019-05-29T01:53:15.580Z,4.80
2019-05-29T01:54:15.525Z,5.60
2019-05-29T01:55:15.789Z,6.70
2019-05-29T01:56:15.666Z,5.70
2019-05-29T01:57:15.813Z,4.80
2019-05-29T01:58:15.875Z,6.90
2019-05-29T01:59:15.964Z,4.70
2019-05-29T02:00:16.060Z,4.60
2019-05-29T02:01:16.155Z,6.60
2019-05-29T02:02:16.242Z,9.10
2019-05-29T02:03:16.340Z,5.90
2019-05-29T02:04:17.721Z,5.10
2019-05-29T02:05:17.738Z,5.40
2019-05-29T02:06:17.845Z,4.80
2019-05-29T02:07:17.833Z,5.90
2019-05-29T02:08:17.974Z,6.50
2019-05-29T02:09:17.928Z,5.40
2019-05-29T02:10:18.069Z,6.20
2019-05-29T02:11:17.155Z,4.70
2019-05-29T02:12:19.318Z,5.10
2019-05-29T02:13:17.326Z,4.40
2019-05-29T02:14:18.404Z,5.70
2019-05-29T02:15:27.970Z,5.90
2019-05-29T02:16:18.504Z,5.40
2019-05-29T02:17:17.822Z,6.40
2019-05-29T02:18:18.806Z,9.00
2019-05-29T02:19:17.845Z,5.30
2019-05-29T02:20:18.968Z,6.20
2019-05-29T02:21:18.092Z,4.70
2019-05-29T02:22:18.887Z,4.90
2019-05-29T02:23:18.209Z,5.10
2019-05-29T02:24:19.006Z,6.00
2019-05-29T02:25:19.646Z,5.60
2019-05-29T02:26:18.488Z,5.70
2019-05-29T02:27:19.464Z,4.40
2019-05-29T02:28:18.686Z,5.60
2019-05-29T02:29:18.790Z,4.50
2019-05-29T02:30:21.136Z,4.40
2019-05-29T02:31:19.641Z,4.00
2019-05-29T02:32:19.596Z,5.50
2019-05-29T02:33:19.638Z,5.20
2019-05-29T02:34:19.998Z,6.00
2019-05-29T02:35:20.283Z,4.70
2019-05-29T02:36:20.364Z,6.10
2019-05-29T02:37:20.159Z,4.80
2019-05-29T02:38:20.558Z,5.70
2019-05-29T02:39:21.107Z,4.50
2019-05-29T02:40:21.353Z,4.80
2019-05-29T02:41:21.683Z,4.20
2019-05-29T02:42:20.952Z,5.80
2019-05-29T02:43:21.311Z,5.80
2019-05-29T02:44:21.192Z,4.00
2019-05-29T02:45:21.617Z,6.50
2019-05-29T02:46:21.734Z,4.40
2019-05-29T02:47:21.662Z,5.80
2019-05-29T02:48:21.029Z,5.50
2019-05-29T02:49:21.566Z,4.40
2019-05-29T02:50:22.163Z,4.60
2019-05-29T02:51:22.069Z,5.30
2019-05-29T02:52:21.921Z,5.30
2019-05-29T02:53:22.234Z,6.30
2019-05-29T02:54:22.526Z,6.00
2019-05-29T02:55:22.497Z,4.70
2019-05-29T02:56:22.754Z,3.90
2019-05-29T02:57:22.823Z,5.00
2019-05-29T02:58:23.246Z,5.00
2019-05-29T02:59:23.246Z,5.90
2019-05-29T03:00:23.271Z,3.50
2019-05-29T03:01:23.588Z,4.20
2019-05-29T03:02:23.348Z,4.30
2019-05-29T03:03:23.523Z,4.80
2019-05-29T03:04:23.844Z,4.50
2019-05-29T03:05:23.717Z,4.50
2019-05-29T03:06:22.756Z,5.60
2019-05-29T03:07:22.457Z,5.50
2019-05-29T03:08:22.451Z,4.80
2019-05-29T03:09:22.911Z,5.80
2019-05-29T03:10:22.643Z,6.00
2019-05-29T03:11:23.204Z,4.70
2019-05-29T03:12:22.940Z,3.40
2019-05-29T03:13:23.268Z,4.30
2019-05-29T03:14:23.020Z,3.50
2019-05-29T03:15:23.567Z,4.30
2019-05-29T03:16:23.839Z,4.10
2019-05-29T03:17:23.664Z,3.00
2019-05-29T03:18:23.963Z,3.80
2019-05-29T03:19:23.912Z,3.90
2019-05-29T03:20:23.923Z,4.20
2019-05-29T03:21:24.074Z,5.00
2019-05-29T03:22:24.133Z,4.00
2019-05-29T03:23:24.187Z,4.30
2019-05-29T03:24:24.466Z,5.90
2019-05-29T03:25:24.342Z,4.30
2019-05-29T03:26:26.537Z,3.90
2019-05-29T03:27:25.602Z,3.90
2019-05-29T03:28:25.518Z,6.60
2019-05-29T03:29:25.779Z,3.20
2019-05-29T03:30:26.992Z,6.40
2019-05-29T03:31:27.059Z,4.40
2019-05-29T03:32:27.173Z,4.00
2019-05-29T03:33:27.131Z,4.70
2019-05-29T03:34:27.391Z,4.70
2019-05-29T03:35:27.482Z,4.00
2019-05-29T03:36:27.667Z,6.30
2019-05-29T03:37:26.255Z,3.60
2019-05-29T03:38:26.107Z,6.20
2019-05-29T03:39:26.393Z,5.10
2019-05-29T03:40:26.523Z,3.80
2019-05-29T03:41:26.274Z,4.10
2019-05-29T03:42:26.391Z,4.80
2019-05-29T03:43:26.162Z,4.00
2019-05-29T03:44:26.309Z,4.00
2019-05-29T03:45:26.764Z,4.20
2019-05-29T03:46:34.420Z,3.10
2019-05-29T03:47:26.903Z,4.60
2019-05-29T03:48:27.720Z,3.40
2019-05-29T03:49:26.851Z,4.10
2019-05-29T03:50:27.277Z,3.90
2019-05-29T03:51:27.354Z,5.10
2019-05-29T03:52:28.294Z,4.30
2019-05-29T03:53:27.044Z,4.10
2019-05-29T03:54:28.662Z,3.60
2019-05-29T03:55:27.308Z,3.30
2019-05-29T03:56:28.163Z,2.90
2019-05-29T03:57:27.687Z,7.30
2019-05-29T03:58:28.736Z,3.70
2019-05-29T03:59:28.470Z,5.80
2019-05-29T04:00:31.906Z,3.30
2019-05-29T04:01:28.942Z,6.40
2019-05-29T04:02:28.682Z,3.80
2019-05-29T04:03:28.932Z,4.80
2019-05-29T04:04:29.031Z,4.40
2019-05-29T04:05:29.112Z,3.80
2019-05-29T04:06:29.088Z,4.30
2019-05-29T04:07:29.299Z,4.70
2019-05-29T04:08:29.477Z,3.60
2019-05-29T04:09:29.166Z,6.20
2019-05-29T04:10:29.429Z,5.10
2019-05-29T04:11:29.288Z,3.60
2019-05-29T04:12:29.530Z,7.10
2019-05-29T04:13:29.598Z,4.30
2019-05-29T04:14:29.741Z,3.80
2019-05-29T04:15:29.316Z,4.60
2019-05-29T04:16:29.573Z,5.00
2019-05-29T04:17:29.769Z,3.70
2019-05-29T04:18:29.736Z,3.60
2019-05-29T04:19:30.123Z,5.00
2019-05-29T04:20:29.585Z,3.40
2019-05-29T04:21:29.655Z,5.20
2019-05-29T04:22:30.340Z,3.80
2019-05-29T04:23:29.991Z,3.50
2019-05-29T04:24:29.823Z,3.30
2019-05-29T04:25:33.265Z,4.50
2019-05-29T04:26:29.737Z,2.90
2019-05-29T04:27:30.059Z,4.80
2019-05-29T04:28:30.321Z,4.50
2019-05-29T04:29:30.127Z,3.40
2019-05-29T04:30:30.102Z,3.10
2019-05-29T04:31:30.118Z,4.60
2019-05-29T04:32:30.204Z,3.60
2019-05-29T04:33:30.685Z,3.20
2019-05-29T04:34:31.696Z,3.00
2019-05-29T04:35:30.482Z,5.20
2019-05-29T04:36:31.164Z,4.00
2019-05-29T04:37:32.481Z,4.60
2019-05-29T04:38:31.556Z,3.20
2019-05-29T04:39:32.654Z,4.20
2019-05-29T04:40:32.533Z,3.60
2019-05-29T04:41:32.676Z,3.30
2019-05-29T04:42:33.498Z,3.00
2019-05-29T04:43:33.214Z,2.20
2019-05-29T04:44:33.113Z,2.50
2019-05-29T04:45:33.067Z,2.70
2019-05-29T04:46:31.755Z,2.80
2019-05-29T04:47:33.144Z,3.30
2019-05-29T04:48:33.505Z,4.50
2019-05-29T04:49:33.646Z,3.90
2019-05-29T04:50:33.381Z,2.90
2019-05-29T04:51:33.089Z,3.40
2019-05-29T04:52:33.563Z,4.10
2019-05-29T04:53:33.518Z,3.20
2019-05-29T04:54:33.347Z,4.90
2019-05-29T04:55:32.743Z,5.20
2019-05-29T04:56:32.782Z,6.30
2019-05-29T04:57:32.875Z,3.60
2019-05-29T04:58:32.872Z,3.40
2019-05-29T04:59:33.063Z,2.50
2019-05-29T05:00:33.143Z,3.00
2019-05-29T05:01:33.096Z,3.50
2019-05-29T05:02:33.114Z,2.70
2019-05-29T05:03:33.280Z,6.30
2019-05-29T05:04:33.282Z,2.90
2019-05-29T05:05:33.357Z,2.80
2019-05-29T05:06:33.416Z,2.80
2019-05-29T05:07:33.543Z,2.90
2019-05-29T05:08:33.608Z,3.50
2019-05-29T05:09:33.701Z,3.00
2019-05-29T05:10:33.795Z,3.00
2019-05-29T05:11:33.888Z,3.60
2019-05-29T05:12:33.983Z,4.80
2019-05-29T05:13:34.079Z,4.50
2019-05-29T05:14:34.171Z,3.60
2019-05-29T05:15:34.267Z,3.40
2019-05-29T05:16:34.358Z,2.90
2019-05-29T05:17:34.452Z,3.80
2019-05-29T05:18:35.544Z,4.30
2019-05-29T05:19:35.873Z,2.00
2019-05-29T05:20:36.008Z,3.70
2019-05-29T05:21:35.954Z,3.00
2019-05-29T05:22:36.037Z,3.10
2019-05-29T05:23:36.073Z,3.40
2019-05-29T05:24:36.299Z,4.70
2019-05-29T05:25:36.348Z,2.30
2019-05-29T05:26:36.285Z,4.60
2019-05-29T05:27:36.448Z,2.90
2019-05-29T05:28:36.463Z,3.90
2019-05-29T05:29:36.286Z,2.30
2019-05-29T05:30:36.476Z,2.30
2019-05-29T05:31:36.504Z,2.60
2019-05-29T05:32:36.870Z,2.30
2019-05-29T05:33:36.750Z,2.80
2019-05-29T05:34:36.893Z,3.60
2019-05-29T05:35:36.825Z,6.60
2019-05-29T05:36:36.761Z,3.80
2019-05-29T05:37:36.924Z,3.70
2019-05-29T05:38:36.827Z,2.60
2019-05-29T05:39:37.274Z,5.20
2019-05-29T05:40:39.405Z,2.80
2019-05-29T05:41:36.907Z,2.70
2019-05-29T05:42:37.183Z,3.60
2019-05-29T05:43:36.988Z,2.70
2019-05-29T05:44:37.101Z,2.60
2019-05-29T05:45:37.158Z,3.90
2019-05-29T05:46:37.215Z,3.60
2019-05-29T05:47:49.981Z,3.50
2019-05-29T05:48:37.385Z,3.00
2019-05-29T05:49:37.479Z,4.10
2019-05-29T05:50:37.570Z,3.20
2019-05-29T05:51:41.124Z,5.20
2019-05-29T05:52:37.760Z,4.00
2019-05-29T05:53:37.852Z,3.90
2019-05-29T05:54:37.948Z,4.20
2019-05-29T05:55:38.042Z,4.30
2019-05-29T05:56:38.135Z,4.60
2019-05-29T05:57:38.226Z,2.70
2019-05-29T05:58:38.324Z,2.70
2019-05-29T05:59:38.422Z,3.90
2019-05-29T06:00:39.775Z,2.60
2019-05-29T06:01:39.934Z,5.60
2019-05-29T06:02:40.018Z,5.50
2019-05-29T06:03:40.461Z,4.30
2019-05-29T06:04:40.028Z,4.10
2019-05-29T06:05:40.107Z,4.40
2019-05-29T06:06:40.203Z,4.10
2019-05-29T06:07:40.430Z,3.10
2019-05-29T06:08:40.228Z,3.70
2019-05-29T06:09:40.418Z,4.10
2019-05-29T06:10:40.285Z,3.30
2019-05-29T06:11:40.391Z,5.10
2019-05-29T06:12:40.593Z,4.70
2019-05-29T06:13:40.496Z,4.20
2019-05-29T06:14:40.648Z,3.30
2019-05-29T06:15:40.653Z,3.10
2019-05-29T06:16:40.709Z,4.60
2019-05-29T06:17:40.751Z,4.50
2019-05-29T06:18:40.654Z,3.90
2019-05-29T06:19:41.133Z,4.40
2019-05-29T06:20:40.998Z,4.20
2019-05-29T06:21:40.921Z,2.80
2019-05-29T06:22:41.162Z,4.50
2019-05-29T06:23:41.144Z,3.80
2019-05-29T06:24:41.046Z,3.60
2019-05-29T06:25:42.476Z,2.40
2019-05-29T06:26:41.122Z,2.80
2019-05-29T06:27:41.418Z,2.80
2019-05-29T06:28:41.310Z,2.30
2019-05-29T06:29:41.344Z,3.40
2019-05-29T06:30:43.317Z,3.60
2019-05-29T06:31:41.505Z,4.00
2019-05-29T06:32:41.659Z,3.90
2019-05-29T06:33:41.661Z,2.50
2019-05-29T06:34:41.757Z,3.10
2019-05-29T06:35:41.854Z,4.30
2019-05-29T06:36:41.956Z,2.40
2019-05-29T06:37:42.045Z,3.10
2019-05-29T06:38:42.270Z,2.50
2019-05-29T06:39:42.235Z,2.40
2019-05-29T06:40:42.327Z,5.50
2019-05-29T06:41:42.426Z,4.60
2019-05-29T06:42:42.538Z,3.50
2019-05-29T06:43:44.101Z,3.80
2019-05-29T06:44:44.868Z,4.90
2019-05-29T06:45:44.031Z,3.70
2019-05-29T06:46:45.150Z,4.00
2019-05-29T06:47:44.477Z,3.80
2019-05-29T06:48:57.447Z,4.40
2019-05-29T06:49:44.270Z,4.80
2019-05-29T06:50:43.500Z,2.60
2019-05-29T06:51:43.512Z,2.70
2019-05-29T06:52:43.621Z,3.10
2019-05-29T06:53:43.912Z,3.50
2019-05-29T06:54:44.126Z,3.70
2019-05-29T06:55:44.024Z,3.90
2019-05-29T06:56:43.893Z,4.20
2019-05-29T06:57:44.509Z,2.90
2019-05-29T06:58:44.415Z,2.40
2019-05-29T06:59:44.718Z,4.60
2019-05-29T07:00:44.854Z,4.00
2019-05-29T07:01:44.354Z,3.60
2019-05-29T07:02:44.886Z,1.90
2019-05-29T07:03:44.543Z,4.80
2019-05-29T07:04:44.733Z,3.10
2019-05-29T07:05:50.668Z,3.40
2019-05-29T07:06:44.902Z,2.80
2019-05-29T07:07:44.927Z,5.70
2019-05-29T07:08:48.263Z,3.20
2019-05-29T07:09:45.194Z,4.70
2019-05-29T07:10:45.222Z,3.60
2019-05-29T07:11:45.538Z,3.90
2019-05-29T07:12:46.442Z,3.80
2019-05-29T07:13:48.444Z,4.00
2019-05-29T07:14:46.572Z,2.90
2019-05-29T07:15:46.189Z,3.70
2019-05-29T07:16:55.663Z,3.40
2019-05-29T07:17:46.694Z,2.60
2019-05-29T07:19:22.960Z,3.10
2019-05-29T07:19:57.970Z,5.60
2019-05-29T07:20:46.984Z,3.90
2019-05-29T07:21:47.192Z,4.00
2019-05-29T07:22:47.121Z,4.80
2019-05-29T07:23:48.422Z,2.80
2019-05-29T07:24:47.031Z,4.20
2019-05-29T07:25:47.431Z,3.70
2019-05-29T07:26:47.252Z,3.60
2019-05-29T07:27:47.061Z,3.00
2019-05-29T07:29:02.967Z,3.60
2019-05-29T07:29:47.400Z,3.30
2019-05-29T07:30:53.722Z,3.50
2019-05-29T07:31:47.319Z,5.80
2019-05-29T07:32:56.769Z,4.50
2019-05-29T07:33:47.486Z,3.70
2019-05-29T07:35:02.342Z,4.90
2019-05-29T07:35:47.833Z,3.70
2019-05-29T07:36:48.182Z,4.70
2019-05-29T07:37:48.128Z,4.10
2019-05-29T07:39:01.955Z,4.10
2019-05-29T07:39:48.000Z,4.00
2019-05-29T07:40:49.869Z,4.70
2019-05-29T07:41:48.180Z,2.70
2019-05-29T07:42:55.066Z,5.20
2019-05-29T07:43:48.386Z,5.20
2019-05-29T07:44:48.467Z,3.30
2019-05-29T07:45:48.560Z,4.80
2019-05-29T07:46:48.928Z,3.60
2019-05-29T07:47:48.749Z,6.60
2019-05-29T07:48:50.379Z,4.50
2019-05-29T07:49:50.279Z,4.30
2019-05-29T07:50:49.037Z,6.40
2019-05-29T07:51:49.139Z,4.20
2019-05-29T07:52:49.402Z,5.00
2019-05-29T07:53:49.326Z,3.30
2019-05-29T07:54:50.044Z,3.10
2019-05-29T07:55:49.516Z,3.50
2019-05-29T07:56:49.613Z,4.60
2019-05-29T07:57:49.710Z,4.20
2019-05-29T07:59:01.545Z,3.90
2019-05-29T07:59:49.909Z,6.30
2019-05-29T08:01:08.961Z,3.80
2019-05-29T08:01:50.090Z,2.80
2019-05-29T08:02:50.184Z,5.20
2019-05-29T08:03:50.314Z,4.20
2019-05-29T08:04:50.377Z,4.70
2019-05-29T08:05:52.643Z,2.90
2019-05-29T08:06:54.336Z,4.40
2019-05-29T08:07:50.679Z,4.50
2019-05-29T08:08:50.867Z,3.60
2019-05-29T08:09:50.875Z,3.70
2019-05-29T08:10:50.969Z,4.00
2019-05-29T08:11:51.067Z,4.80
2019-05-29T08:12:55.564Z,3.50
2019-05-29T08:13:51.259Z,2.90
2019-05-29T08:14:51.376Z,3.00
2019-05-29T08:16:01.861Z,3.60
2019-05-29T08:16:51.547Z,4.00
2019-05-29T08:17:51.642Z,3.70
2019-05-29T08:18:52.942Z,4.30
2019-05-29T08:20:03.248Z,3.50
2019-05-29T08:20:51.930Z,2.30
2019-05-29T08:21:52.026Z,3.90
2019-05-29T08:22:52.127Z,2.70
2019-05-29T08:23:52.218Z,4.90
2019-05-29T08:24:52.314Z,2.90
2019-05-29T08:25:52.411Z,4.40
2019-05-29T08:26:52.517Z,3.80
2019-05-29T08:27:52.612Z,2.60
2019-05-29T08:28:52.711Z,2.90
2019-05-29T08:29:52.808Z,4.50
2019-05-29T08:30:56.409Z,5.20
2019-05-29T08:31:53.005Z,4.10
2019-05-29T08:32:53.117Z,4.20
2019-05-29T08:33:53.193Z,6.00
2019-05-29T08:34:53.279Z,3.80
2019-05-29T08:35:59.886Z,4.20
2019-05-29T08:37:06.032Z,2.60
2019-05-29T08:37:53.564Z,4.10
2019-05-29T08:38:53.664Z,3.80
2019-05-29T08:39:53.761Z,5.70
2019-05-29T08:40:53.861Z,2.90
2019-05-29T08:42:19.579Z,4.60
2019-05-29T08:42:54.087Z,4.80
2019-05-29T08:44:01.372Z,4.20
2019-05-29T08:44:54.221Z,3.80
2019-05-29T08:45:54.336Z,4.00
2019-05-29T08:47:09.042Z,5.00
2019-05-29T08:47:54.513Z,4.00
2019-05-29T08:48:54.628Z,4.60
2019-05-29T08:49:54.788Z,3.40
2019-05-29T08:50:54.803Z,3.40
2019-05-29T08:52:10.609Z,4.20
2019-05-29T08:52:54.999Z,3.80
2019-05-29T08:53:55.091Z,4.70
2019-05-29T08:54:55.187Z,3.40
2019-05-29T08:55:55.283Z,3.50
2019-05-29T08:56:55.384Z,3.00
2019-05-29T08:57:55.478Z,5.60
2019-05-29T08:58:55.579Z,3.50
2019-05-29T08:59:55.682Z,4.20
2019-05-29T09:00:55.780Z,4.50
2019-05-29T09:01:55.918Z,2.90
2019-05-29T09:02:55.976Z,3.90
2019-05-29T09:03:56.081Z,4.00
2019-05-29T09:04:56.169Z,3.20
2019-05-29T09:06:08.516Z,3.60
2019-05-29T09:06:56.361Z,3.80
2019-05-29T09:07:56.459Z,5.00
2019-05-29T09:08:56.561Z,3.60
2019-05-29T09:09:56.657Z,4.90
2019-05-29T09:10:56.754Z,3.80
2019-05-29T09:11:56.852Z,3.30
2019-05-29T09:13:04.914Z,5.50
2019-05-29T09:13:57.060Z,3.80
2019-05-29T09:14:57.154Z,5.10
2019-05-29T09:15:57.252Z,3.90
2019-05-29T09:16:57.349Z,3.10
2019-05-29T09:17:57.446Z,4.70
2019-05-29T09:18:57.541Z,4.80
2019-05-29T09:19:57.640Z,3.00
2019-05-29T09:21:03.439Z,3.30
2019-05-29T09:21:57.832Z,4.60
2019-05-29T09:22:57.927Z,5.30
2019-05-29T09:23:59.042Z,3.70
2019-05-29T09:24:58.120Z,3.50
2019-05-29T09:26:13.615Z,6.20
2019-05-29T09:26:58.315Z,5.00
2019-05-29T09:27:58.411Z,4.00
2019-05-29T09:28:58.507Z,3.30
2019-05-29T09:29:58.604Z,2.40
2019-05-29T09:30:58.705Z,5.80
2019-05-29T09:31:58.801Z,5.80
2019-05-29T09:32:58.896Z,3.50
2019-05-29T09:33:58.998Z,4.00
2019-05-29T09:34:59.094Z,3.70
2019-05-29T09:35:59.189Z,4.70
2019-05-29T09:36:59.321Z,3.30
2019-05-29T09:37:59.394Z,3.40
2019-05-29T09:38:59.496Z,2.90
2019-05-29T09:39:59.606Z,3.50
2019-05-29T09:40:59.681Z,4.10
2019-05-29T09:41:59.778Z,3.80
2019-05-29T09:42:59.878Z,3.00
2019-05-29T09:44:00.419Z,4.20
2019-05-29T09:45:00.074Z,4.50
2019-05-29T09:46:02.292Z,4.80
2019-05-29T09:47:00.271Z,3.90
2019-05-29T09:48:00.372Z,3.60
2019-05-29T09:49:01.568Z,5.30
2019-05-29T09:50:00.575Z,3.20
2019-05-29T09:51:19.961Z,3.40
2019-05-29T09:52:01.010Z,5.80
2019-05-29T09:53:02.699Z,3.90
2019-05-29T09:54:01.499Z,3.50
2019-05-29T09:55:02.484Z,3.10
2019-05-29T09:56:02.912Z,3.40
2019-05-29T09:57:01.259Z,2.80
2019-05-29T09:58:02.665Z,2.70
2019-05-29T09:59:01.813Z,2.70
2019-05-29T10:00:02.155Z,2.70
2019-05-29T10:01:18.334Z,4.70
2019-05-29T10:02:05.963Z,4.60
2019-05-29T10:03:01.909Z,3.10
2019-05-29T10:04:05.776Z,2.20
2019-05-29T10:05:02.918Z,3.40
2019-05-29T10:06:02.188Z,3.20
2019-05-29T10:07:04.144Z,2.90
2019-05-29T10:08:04.066Z,2.60
2019-05-29T10:09:03.644Z,3.10
2019-05-29T10:10:03.526Z,2.40
2019-05-29T10:11:08.422Z,1.90
2019-05-29T10:12:06.371Z,2.70
2019-05-29T10:13:04.206Z,2.90
2019-05-29T10:14:04.959Z,3.80
2019-05-29T10:15:04.329Z,2.60
2019-05-29T10:16:04.606Z,2.20
2019-05-29T10:17:09.164Z,2.40
2019-05-29T10:18:07.389Z,2.60
2019-05-29T10:19:04.861Z,2.70
2019-05-29T10:20:03.527Z,3.10
2019-05-29T10:21:03.637Z,3.00
2019-05-29T10:22:04.506Z,4.90
2019-05-29T10:23:05.064Z,2.70
2019-05-29T10:24:04.197Z,3.00
2019-05-29T10:25:04.023Z,2.00
2019-05-29T10:26:05.042Z,2.60
2019-05-29T10:27:05.291Z,2.80
2019-05-29T10:28:06.086Z,1.90
2019-05-29T10:29:09.187Z,3.80
2019-05-29T10:30:04.505Z,3.30
2019-05-29T10:31:05.148Z,3.30
2019-05-29T10:32:04.704Z,2.10
2019-05-29T10:33:04.804Z,2.80
2019-05-29T10:34:04.901Z,1.60
2019-05-29T10:35:05.027Z,3.30
2019-05-29T10:36:05.097Z,3.20
2019-05-29T10:37:05.185Z,6.10
2019-05-29T10:38:05.284Z,4.80
2019-05-29T10:39:05.380Z,3.10
2019-05-29T10:40:05.482Z,3.20
2019-05-29T10:41:07.158Z,2.40
2019-05-29T10:42:05.674Z,2.20
2019-05-29T10:43:05.774Z,2.00
2019-05-29T10:44:05.870Z,1.10
2019-05-29T10:45:05.974Z,3.60
2019-05-29T10:46:06.079Z,3.90
2019-05-29T10:47:06.163Z,2.50
2019-05-29T10:48:06.282Z,3.00
2019-05-29T10:49:06.380Z,2.80
2019-05-29T10:50:06.477Z,2.00
2019-05-29T10:51:06.566Z,3.10
2019-05-29T10:52:15.635Z,2.50
2019-05-29T10:53:06.763Z,2.80
2019-05-29T10:54:06.878Z,3.20
2019-05-29T10:55:06.966Z,1.70
2019-05-29T10:56:07.051Z,2.10
2019-05-29T10:57:07.154Z,4.10
2019-05-29T10:58:07.251Z,2.80
2019-05-29T10:59:07.352Z,1.70
2019-05-29T11:00:07.450Z,3.00
2019-05-29T11:01:07.546Z,3.60
2019-05-29T11:02:07.644Z,1.20
2019-05-29T11:03:07.744Z,1.90
2019-05-29T11:04:07.840Z,2.10
2019-05-29T11:05:07.937Z,3.00
2019-05-29T11:06:08.041Z,2.00
2019-05-29T11:07:08.135Z,1.80
2019-05-29T11:08:08.233Z,1.30
2019-05-29T11:09:08.329Z,3.00
2019-05-29T11:10:08.429Z,1.70
2019-05-29T11:11:08.524Z,1.40
2019-05-29T11:12:08.622Z,3.00
2019-05-29T11:13:08.718Z,1.20
2019-05-29T11:14:08.822Z,2.90
2019-05-29T11:15:20.762Z,2.30
2019-05-29T11:16:09.032Z,3.00
2019-05-29T11:17:09.130Z,2.40
2019-05-29T11:18:09.232Z,2.00
2019-05-29T11:19:09.329Z,3.00
2019-05-29T11:20:09.430Z,3.60
2019-05-29T11:21:09.518Z,5.90
2019-05-29T11:22:25.277Z,2.80
2019-05-29T11:23:09.723Z,1.00
2019-05-29T11:24:09.811Z,2.10
2019-05-29T11:25:22.652Z,1.60
2019-05-29T11:26:10.005Z,2.40
2019-05-29T11:27:10.101Z,1.50
2019-05-29T11:28:10.198Z,1.50
2019-05-29T11:29:10.300Z,3.20
2019-05-29T11:30:10.390Z,3.10
2019-05-29T11:31:10.485Z,1.70
2019-05-29T11:32:10.741Z,1.00
2019-05-29T11:33:10.725Z,1.80
2019-05-29T11:34:10.821Z,2.40
2019-05-29T11:35:10.955Z,7.90
2019-05-29T11:36:13.635Z,2.50
2019-05-29T11:37:11.113Z,2.20
2019-05-29T11:38:11.288Z,1.70
2019-05-29T11:39:11.315Z,2.30
2019-05-29T11:40:11.407Z,1.30
2019-05-29T11:41:25.291Z,1.00
2019-05-29T11:42:26.223Z,0.90
2019-05-29T11:43:11.728Z,3.90
2019-05-29T11:44:11.826Z,3.30
2019-05-29T11:45:11.920Z,2.00
2019-05-29T11:46:12.017Z,1.90
2019-05-29T11:47:12.116Z,1.80
2019-05-29T11:48:12.232Z,1.10
2019-05-29T11:49:12.313Z,2.40
2019-05-29T11:50:19.190Z,3.20
2019-05-29T11:51:12.507Z,4.40
2019-05-29T11:52:23.659Z,1.50
2019-05-29T11:53:12.731Z,1.60
2019-05-29T11:54:12.810Z,1.90
2019-05-29T11:55:12.906Z,1.90
2019-05-29T11:56:12.990Z,2.40
2019-05-29T11:57:13.098Z,2.40
2019-05-29T11:58:29.967Z,1.30
2019-05-29T11:59:13.290Z,1.10
2019-05-29T12:00:19.826Z,3.70
2019-05-29T12:01:13.486Z,1.10
2019-05-29T12:02:13.581Z,2.10
2019-05-29T12:03:13.690Z,4.60
2019-05-29T12:04:25.808Z,2.80
2019-05-29T12:05:13.885Z,1.80
2019-05-29T12:06:14.143Z,2.50
2019-05-29T12:07:14.078Z,2.50
2019-05-29T12:08:14.181Z,2.50
2019-05-29T12:09:29.050Z,1.80
2019-05-29T12:10:14.528Z,1.10
2019-05-29T12:11:14.470Z,2.30
2019-05-29T12:12:14.563Z,1.90
2019-05-29T12:13:14.666Z,2.20
2019-05-29T12:14:14.759Z,1.80
2019-05-29T12:15:17.645Z,2.10
2019-05-29T12:16:14.956Z,2.60
2019-05-29T12:17:15.056Z,2.00
2019-05-29T12:18:23.473Z,1.10
2019-05-29T12:19:15.293Z,1.80
2019-05-29T12:20:29.253Z,1.30
2019-05-29T12:21:15.486Z,1.40
2019-05-29T12:22:15.593Z,1.40
2019-05-29T12:23:25.999Z,2.40
2019-05-29T12:24:15.789Z,1.20
2019-05-29T12:25:15.895Z,1.70
2019-05-29T12:26:22.374Z,2.90
2019-05-29T12:27:16.076Z,2.10
2019-05-29T12:28:16.174Z,1.50
2019-05-29T12:29:16.263Z,1.50
2019-05-29T12:30:16.380Z,1.90
2019-05-29T12:31:16.488Z,1.20
2019-05-29T12:32:16.626Z,1.20
2019-05-29T12:33:16.715Z,3.50
2019-05-29T12:34:19.391Z,2.10
2019-05-29T12:35:16.918Z,1.20
2019-05-29T12:36:17.012Z,1.10
2019-05-29T12:37:17.114Z,2.70
2019-05-29T12:38:17.215Z,2.20
2019-05-29T12:39:17.314Z,3.00
2019-05-29T12:40:17.456Z,1.00
2019-05-29T12:41:17.536Z,1.90
2019-05-29T12:42:17.639Z,1.10
2019-05-29T12:43:27.057Z,1.70
2019-05-29T12:44:17.824Z,2.30
2019-05-29T12:45:17.918Z,1.10
2019-05-29T12:46:18.017Z,1.30
2019-05-29T12:47:18.112Z,1.40
2019-05-29T12:48:18.211Z,2.00
2019-05-29T12:49:18.303Z,1.70
2019-05-29T12:50:18.407Z,1.80
2019-05-29T12:51:18.499Z,1.70
2019-05-29T12:52:18.599Z,3.20
2019-05-29T12:53:29.579Z,1.00
2019-05-29T12:54:18.795Z,1.20
2019-05-29T12:55:19.098Z,2.60
2019-05-29T12:56:19.007Z,1.10
2019-05-29T12:57:19.102Z,2.10
2019-05-29T12:58:19.201Z,2.10
2019-05-29T12:59:19.330Z,2.00
2019-05-29T13:00:19.394Z,1.50
2019-05-29T13:01:19.494Z,1.60
2019-05-29T13:02:19.592Z,2.00
2019-05-29T13:03:19.689Z,1.20
2019-05-29T13:04:19.789Z,1.10
2019-05-29T13:05:20.883Z,1.40
2019-05-29T13:06:19.981Z,0.80
2019-05-29T13:07:20.086Z,2.20
2019-05-29T13:08:20.184Z,1.60
2019-05-29T13:09:20.281Z,2.30
2019-05-29T13:10:30.100Z,1.20
2019-05-29T13:11:20.479Z,1.50
2019-05-29T13:12:20.586Z,2.80
2019-05-29T13:13:20.676Z,3.50
2019-05-29T13:14:20.774Z,7.80
2019-05-29T13:15:20.878Z,4.90
2019-05-29T13:16:20.977Z,4.20
2019-05-29T13:17:21.066Z,1.70
2019-05-29T13:18:21.178Z,1.80
2019-05-29T13:19:21.277Z,1.30